Time;durP1;ratioP1;P1;durP2;ratioP2;P2;SDS_P1;SDS_P2;PMS_P1;PMS_P2;Temp;Humidity;BMP_temperature;BMP_pressure;BME280_temperature;BME280_humidity;BME280_pressure;Samples;Min_cycle;Max_cycle;Signal;HPM_P1;HPM_P2
2022/04/08 00:00:04;;;;;;;3.78;1.67;;;7.10;99.90;;;;;;5010893;28;20041;-55
2022/04/08 00:03:29;;;;;;;3.70;1.55;;;7.10;99.90;;;;;;5042803;28;20033;-55
2022/04/08 00:06:54;;;;;;;3.20;1.10;;;7.20;99.90;;;;;;5031347;28;20119;-55
2022/04/08 00:10:20;;;;;;;3.72;1.10;;;7.20;99.90;;;;;;5044475;28;20377;-56
2022/04/08 00:13:45;;;;;;;3.65;1.15;;;7.20;99.90;;;;;;5048311;28;20060;-55
2022/04/08 00:17:10;;;;;;;3.08;0.90;;;7.20;99.90;;;;;;5042441;28;20076;-56
2022/04/08 00:20:36;;;;;;;3.25;0.93;;;7.20;99.90;;;;;;5037362;28;20037;-55
2022/04/08 00:24:02;;;;;;;5.32;1.00;;;7.30;99.90;;;;;;5010384;28;20493;-63
2022/04/08 00:27:27;;;;;;;5.70;1.08;;;7.30;99.90;;;;;;5038508;28;20037;-63
2022/04/08 00:30:52;;;;;;;4.88;1.33;;;7.20;99.90;;;;;;5038918;28;20198;-63
2022/04/08 00:34:17;;;;;;;2.08;1.00;;;7.20;99.90;;;;;;5038706;28;20029;-64
2022/04/08 00:37:43;;;;;;;6.10;1.50;;;7.10;99.90;;;;;;5031494;28;20094;-63
2022/04/08 00:41:08;;;;;;;3.15;1.27;;;7.10;99.90;;;;;;5010169;28;20037;-64
2022/04/08 00:44:33;;;;;;;1.63;1.00;;;7.00;99.90;;;;;;5043603;28;20041;-64
2022/04/08 00:48:06;;;;;;;2.88;1.45;;;7.00;99.90;;;;;;5030174;28;20045;-63
2022/04/08 00:51:24;;;;;;;2.88;1.88;;;7.00;99.90;;;;;;5028368;28;20052;-63
2022/04/08 00:54:49;;;;;;;1.23;1.02;;;7.00;99.90;;;;;;5029389;28;20055;-63
2022/04/08 00:58:15;;;;;;;2.13;1.27;;;7.00;99.90;;;;;;5043632;28;20166;-63
2022/04/08 01:01:28;;;;;;;3.70;1.55;;;7.00;99.90;;;;;;5031907;28;20412;-63
2022/04/08 01:03:53;;;;;;;6.10;1.10;;;6.80;99.90;;;;;;5028452;28;20041;-63
2022/04/08 01:06:20;;;;;;;4.22;1.33;;;6.80;99.90;;;;;;5048648;28;20366;-63
2022/04/08 01:08:50;;;;;;;5.85;1.70;;;6.70;99.90;;;;;;5028027;28;20065;-63
2022/04/08 01:11:16;;;;;;;2.42;1.30;;;6.70;99.90;;;;;;5009386;28;20041;-63
2022/04/08 01:13:42;;;;;;;2.95;1.10;;;6.70;99.90;;;;;;5027572;28;20040;-62
2022/04/08 01:16:08;;;;;;;3.55;1.33;;;6.60;99.90;;;;;;5048133;28;20115;-63
2022/04/08 01:18:34;;;;;;;5.65;1.52;;;6.60;99.90;;;;;;5027702;28;20065;-64
2022/04/08 01:21:07;;;;;;;2.60;1.15;;;6.70;99.90;;;;;;5032381;28;20390;-63
2022/04/08 01:23:36;;;;;;;2.67;1.27;;;6.70;99.90;;;;;;5029836;28;20029;-64
2022/04/08 01:26:08;;;;;;;4.07;1.00;;;6.70;99.90;;;;;;5048326;28;20036;-63
2022/04/08 01:28:34;;;;;;;3.28;0.90;;;6.80;99.90;;;;;;5027172;28;20483;-63
2022/04/08 01:31:00;;;;;;;3.40;1.20;;;6.80;99.90;;;;;;5048078;28;20124;-63
2022/04/08 01:33:26;;;;;;;3.75;1.05;;;6.80;99.90;;;;;;5027790;28;20561;-63
2022/04/08 01:35:51;;;;;;;2.72;1.00;;;6.80;99.90;;;;;;5048022;28;20031;-63
2022/04/08 01:38:17;;;;;;;1.52;0.73;;;6.80;99.90;;;;;;5027636;28;20056;-63
2022/04/08 01:40:42;;;;;;;2.38;1.00;;;6.80;99.90;;;;;;5048171;28;20029;-63
2022/04/08 01:43:08;;;;;;;2.38;0.88;;;6.70;99.90;;;;;;5027597;28;20555;-63
2022/04/08 01:45:34;;;;;;;1.92;0.93;;;6.70;99.90;;;;;;5048033;28;20033;-63
2022/04/08 01:47:59;;;;;;;2.10;0.80;;;6.70;99.90;;;;;;5037520;28;20179;-63
2022/04/08 01:50:25;;;;;;;4.45;1.38;;;6.80;99.90;;;;;;5052862;28;20037;-63
2022/04/08 01:52:50;;;;;;;2.45;1.27;;;6.70;99.90;;;;;;5031427;28;20485;-63
2022/04/08 01:55:18;;;;;;;2.17;1.15;;;6.70;99.90;;;;;;5052097;28;20047;-63
2022/04/08 01:57:43;;;;;;;2.20;1.10;;;6.70;99.90;;;;;;5041529;28;20040;-63
2022/04/08 02:00:10;;;;;;;2.08;0.80;;;6.70;99.90;;;;;;5033582;28;20052;-63
2022/04/08 02:02:36;;;;;;;7.03;0.93;;;6.80;99.90;;;;;;5049823;28;20403;-63
2022/04/08 02:05:02;;;;;;;1.98;0.80;;;6.80;99.90;;;;;;5032939;28;20041;-63
2022/04/08 02:07:28;;;;;;;1.83;1.02;;;6.80;99.90;;;;;;5050049;28;20568;-64
2022/04/08 02:09:54;;;;;;;2.42;0.80;;;6.90;99.90;;;;;;5032928;28;20041;-63
2022/04/08 02:12:20;;;;;;;3.40;0.90;;;6.90;99.90;;;;;;5049808;28;20025;-63
2022/04/08 02:14:46;;;;;;;2.17;1.00;;;6.90;99.90;;;;;;5052354;28;20029;-63
2022/04/08 02:17:11;;;;;;;1.60;0.65;;;6.90;99.90;;;;;;5036943;28;20037;-63
2022/04/08 02:19:37;;;;;;;3.38;0.88;;;6.90;99.90;;;;;;5052248;28;20040;-63
2022/04/08 02:22:03;;;;;;;1.52;0.82;;;6.90;99.90;;;;;;5035340;28;20488;-63
2022/04/08 02:24:29;;;;;;;1.90;1.15;;;6.90;99.90;;;;;;5052400;28;20083;-63
2022/04/08 02:26:55;;;;;;;4.22;0.73;;;6.80;99.90;;;;;;5034383;28;20025;-64
2022/04/08 02:29:21;;;;;;;4.22;1.05;;;6.80;99.90;;;;;;5052439;28;20385;-63
2022/04/08 02:31:47;;;;;;;1.00;0.60;;;6.80;99.90;;;;;;5033146;28;20450;-63
2022/04/08 02:34:12;;;;;;;5.85;1.23;;;6.80;99.90;;;;;;5052253;28;20013;-63
2022/04/08 02:36:38;;;;;;;2.38;0.82;;;6.90;99.90;;;;;;5031853;28;20026;-63
2022/04/08 02:39:03;;;;;;;3.38;1.10;;;6.90;99.90;;;;;;5051894;28;20366;-63
2022/04/08 02:41:29;;;;;;;2.00;0.88;;;6.90;99.90;;;;;;5030650;28;20029;-62
2022/04/08 02:43:54;;;;;;;2.42;0.90;;;6.90;99.90;;;;;;5051831;28;20020;-63
2022/04/08 02:46:20;;;;;;;3.53;0.85;;;6.90;99.90;;;;;;5032503;28;20040;-64
2022/04/08 02:48:45;;;;;;;1.90;0.60;;;7.00;99.90;;;;;;5030153;28;20508;-63
2022/04/08 02:51:11;;;;;;;2.03;0.85;;;6.90;99.90;;;;;;5050909;28;20037;-63
2022/04/08 02:53:37;;;;;;;6.82;0.93;;;6.90;99.90;;;;;;5030288;28;20370;-63
2022/04/08 02:56:02;;;;;;;2.03;0.80;;;7.00;99.90;;;;;;5050824;28;20036;-63
2022/04/08 02:58:28;;;;;;;4.25;0.80;;;7.00;99.90;;;;;;5030324;28;20034;-63
2022/04/08 03:00:53;;;;;;;1.77;0.93;;;7.00;99.90;;;;;;5050706;28;20492;-63
2022/04/08 03:03:19;;;;;;;2.55;0.57;;;7.00;99.90;;;;;;5030318;28;20026;-64
2022/04/08 03:05:44;;;;;;;2.53;0.70;;;7.00;99.90;;;;;;5050624;28;20029;-63
2022/04/08 03:08:10;;;;;;;4.20;1.00;;;7.00;99.90;;;;;;5030412;28;20073;-64
2022/04/08 03:10:35;;;;;;;1.95;0.82;;;6.90;99.90;;;;;;5050649;28;20041;-63
2022/04/08 03:13:01;;;;;;;3.67;0.93;;;6.80;99.90;;;;;;5029985;28;20037;-63
2022/04/08 03:15:26;;;;;;;3.20;1.08;;;6.80;99.90;;;;;;5050662;28;20025;-63
2022/04/08 03:17:52;;;;;;;2.70;0.70;;;6.80;99.90;;;;;;5030143;28;20061;-64
2022/04/08 03:20:18;;;;;;;4.20;0.70;;;6.90;99.90;;;;;;5043918;28;20029;-62
2022/04/08 03:22:44;;;;;;;5.47;1.33;;;6.90;99.90;;;;;;5039761;28;20021;-63
2022/04/08 03:25:09;;;;;;;4.72;0.70;;;6.90;99.90;;;;;;5031679;28;20504;-63
2022/04/08 03:27:35;;;;;;;3.30;0.90;;;6.90;99.90;;;;;;5048345;28;20036;-63
2022/04/08 03:30:01;;;;;;;2.10;0.80;;;7.00;99.90;;;;;;5031516;28;20052;-50
2022/04/08 03:32:27;;;;;;;1.73;0.80;;;7.00;99.90;;;;;;5048459;28;20029;-52
2022/04/08 03:34:57;;;;;;;2.55;0.73;;;7.00;99.90;;;;;;5031178;28;20037;-53
2022/04/08 03:37:24;;;;;;;2.63;0.52;;;7.00;99.90;;;;;;5048742;28;20032;-52
2022/04/08 03:39:50;;;;;;;0.82;0.50;;;7.00;99.90;;;;;;5050757;28;20215;-52
2022/04/08 03:42:15;;;;;;;2.20;0.68;;;7.00;99.90;;;;;;5035929;28;20021;-55
2022/04/08 03:44:40;;;;;;;2.78;0.93;;;7.00;99.90;;;;;;5050723;28;20261;-54
2022/04/08 03:47:06;;;;;;;3.20;0.65;;;7.00;99.90;;;;;;5034355;28;20388;-56
2022/04/08 03:49:35;;;;;;;2.25;0.80;;;7.00;99.90;;;;;;5050430;28;20033;-50
2022/04/08 03:52:04;;;;;;;3.90;0.80;;;7.00;99.90;;;;;;5033059;28;20041;-56
2022/04/08 03:54:29;;;;;;;0.80;0.60;;;7.00;99.90;;;;;;5048551;28;20025;-56
2022/04/08 03:56:55;;;;;;;1.55;0.40;;;7.00;99.90;;;;;;5031318;28;20400;-56
2022/04/08 03:59:22;;;;;;;3.80;0.70;;;7.00;99.90;;;;;;5048208;28;20021;-56
2022/04/08 04:01:49;;;;;;;2.83;0.88;;;7.00;99.90;;;;;;5027936;28;20029;-49
2022/04/08 04:04:14;;;;;;;3.13;0.90;;;7.00;99.90;;;;;;5031157;28;20028;-54
2022/04/08 04:06:40;;;;;;;0.80;0.50;;;7.10;99.90;;;;;;5048071;28;20033;-53
2022/04/08 04:09:05;;;;;;;3.88;1.35;;;7.10;99.90;;;;;;5050067;28;20025;-53
2022/04/08 04:11:32;;;;;;;2.17;0.75;;;7.10;99.90;;;;;;5013576;28;20497;-53
2022/04/08 04:13:58;;;;;;;3.60;1.05;;;7.10;99.90;;;;;;5029308;28;20037;-54
2022/04/08 04:16:23;;;;;;;1.42;0.80;;;7.00;99.90;;;;;;5049869;28;20035;-53
2022/04/08 04:18:49;;;;;;;1.27;0.60;;;7.00;99.90;;;;;;5025538;28;20628;-57
2022/04/08 04:21:15;;;;;;;1.52;0.65;;;6.90;99.90;;;;;;5029991;28;20036;-54
2022/04/08 04:23:41;;;;;;;3.22;0.80;;;6.80;99.90;;;;;;5028439;28;20029;-52
2022/04/08 04:26:06;;;;;;;4.22;0.98;;;6.80;99.90;;;;;;5049648;28;20040;-54
2022/04/08 04:29:12;;;;;;;2.80;1.02;;;6.70;99.90;;;;;;5029173;28;20639;-55
2022/04/08 04:32:37;;;;;;;1.50;0.70;;;6.70;99.90;;;;;;5036653;28;20393;-55
2022/04/08 04:36:02;;;;;;;3.95;0.80;;;6.70;99.90;;;;;;5031525;28;20041;-54
2022/04/08 04:39:28;;;;;;;2.95;0.70;;;6.70;99.90;;;;;;5027884;28;20033;-55
2022/04/08 04:42:53;;;;;;;2.53;0.80;;;6.60;99.90;;;;;;5042407;28;20040;-51
2022/04/08 04:46:18;;;;;;;2.15;0.85;;;6.70;99.90;;;;;;5010301;28;20034;-50
2022/04/08 04:49:44;;;;;;;3.85;0.52;;;6.50;99.90;;;;;;5046149;28;20408;-51
2022/04/08 04:53:09;;;;;;;3.15;0.70;;;6.40;99.90;;;;;;5028286;28;20037;-56
2022/04/08 04:56:34;;;;;;;3.33;0.88;;;6.30;99.90;;;;;;5038438;28;20550;-57
2022/04/08 05:00:00;;;;;;;0.30;0.20;;;6.10;99.90;;;;;;5043960;28;20033;-55
2022/04/08 05:03:25;;;;;;;0.63;0.30;;;6.00;99.90;;;;;;5025650;28;20037;-53
2022/04/08 05:06:50;;;;;;;1.05;0.32;;;5.80;99.90;;;;;;5023771;28;20064;-54
2022/04/08 05:10:19;;;;;;;2.17;0.60;;;5.80;99.90;;;;;;5036794;28;20064;-55
2022/04/08 05:13:24;;;;;;;;;;;5.80;99.90;;;;;;5036002;28;20041;-52
2022/04/08 05:16:44;;;;;;;1.48;0.50;;;5.80;99.90;;;;;;5049131;28;19991;-55
2022/04/08 05:19:49;;;;;;;1.30;0.63;;;5.80;99.90;;;;;;5027707;28;20578;-55
2022/04/08 05:23:14;;;;;;;0.77;0.70;;;5.90;99.90;;;;;;5027963;28;20112;-55
2022/04/08 05:26:40;;;;;;;1.35;0.65;;;5.90;99.90;;;;;;5037652;28;20546;-52
2022/04/08 05:30:05;;;;;;;2.25;0.43;;;5.90;99.90;;;;;;5043364;28;20047;-56
2022/04/08 05:33:30;;;;;;;5.43;1.63;;;5.90;99.90;;;;;;5043201;28;20468;-55
2022/04/08 05:36:56;;;;;;;3.40;0.73;;;6.00;99.90;;;;;;5037639;28;20029;-53
2022/04/08 05:40:21;;;;;;;5.45;1.00;;;6.00;99.90;;;;;;5009378;28;20030;-54
2022/04/08 05:43:46;;;;;;;3.00;0.60;;;6.00;99.90;;;;;;5038129;28;20069;-53
2022/04/08 05:47:12;;;;;;;1.10;0.50;;;6.10;99.90;;;;;;5044926;28;20044;-52
2022/04/08 05:50:40;;;;;;;2.53;0.80;;;6.10;99.90;;;;;;5037450;28;20048;-50
2022/04/08 05:53:46;;;;;;;;;;;6.20;99.90;;;;;;5022101;28;20045;-55
2022/04/08 05:57:11;;;;;;;1.40;0.63;;;6.20;99.90;;;;;;5008886;28;19909;-52
2022/04/08 06:00:39;;;;;;;1.63;0.70;;;6.30;99.90;;;;;;5042834;28;20040;-50
2022/04/08 06:03:45;;;;;;;;;;;6.40;99.90;;;;;;5029748;28;20063;-54
2022/04/08 06:07:10;;;;;;;2.15;0.68;;;6.40;99.90;;;;;;5037328;28;19909;-52
2022/04/08 06:10:36;;;;;;;1.42;0.70;;;6.40;99.90;;;;;;5037598;28;20033;-52
2022/04/08 06:14:01;;;;;;;1.98;0.75;;;6.40;99.90;;;;;;5027239;28;20140;-55
2022/04/08 06:17:26;;;;;;;1.45;0.77;;;6.40;99.90;;;;;;5042740;28;20401;-53
2022/04/08 06:20:52;;;;;;;1.55;0.65;;;6.40;99.90;;;;;;5029041;28;20037;-54
2022/04/08 06:23:37;;;;;;;3.42;0.77;;;6.50;99.90;;;;;;5029129;28;20045;-51
2022/04/08 06:26:03;;;;;;;1.83;0.80;;;6.50;99.90;;;;;;5047400;28;20029;-46
2022/04/08 06:28:28;;;;;;;2.92;1.00;;;6.50;99.90;;;;;;5027316;28;20048;-48
2022/04/08 06:30:54;;;;;;;2.28;0.70;;;6.50;99.90;;;;;;5047268;28;20658;-48
2022/04/08 06:33:19;;;;;;;3.65;0.80;;;6.50;99.90;;;;;;5028976;28;20025;-47
2022/04/08 06:35:45;;;;;;;4.38;0.70;;;6.50;99.90;;;;;;5051166;28;20033;-49
2022/04/08 06:38:10;;;;;;;2.47;0.70;;;6.60;99.90;;;;;;5030628;28;20521;-51
2022/04/08 06:40:38;;;;;;;3.20;1.25;;;6.60;99.90;;;;;;5051148;28;20066;-49
2022/04/08 06:43:05;;;;;;;2.45;0.73;;;6.70;99.90;;;;;;5040994;28;20497;-50
2022/04/08 06:45:31;;;;;;;2.28;0.60;;;6.70;99.90;;;;;;5031961;28;20060;-51
2022/04/08 06:47:57;;;;;;;8.35;1.30;;;6.70;99.90;;;;;;5048902;28;20135;-49
2022/04/08 06:50:23;;;;;;;2.67;0.80;;;6.80;99.90;;;;;;5032236;28;20060;-50
2022/04/08 06:52:48;;;;;;;2.58;0.70;;;6.90;99.90;;;;;;5048805;28;20033;-51
2022/04/08 06:55:14;;;;;;;1.08;0.60;;;7.00;99.90;;;;;;5032096;28;20120;-51
2022/04/08 06:57:41;;;;;;;3.03;1.25;;;7.30;99.90;;;;;;5048837;28;20401;-50
2022/04/08 07:00:09;;;;;;;2.35;0.60;;;7.60;99.90;;;;;;5031774;28;20021;-50
2022/04/08 07:02:35;;;;;;;2.63;0.88;;;7.70;99.90;;;;;;5048855;28;20087;-50
2022/04/08 07:05:00;;;;;;;2.30;0.60;;;7.60;99.90;;;;;;5051193;28;20021;-49
2022/04/08 07:07:28;;;;;;;2.05;0.80;;;7.30;99.90;;;;;;5036045;28;20302;-48
2022/04/08 07:09:53;;;;;;;4.80;0.70;;;7.00;99.90;;;;;;5051409;28;20070;-53
2022/04/08 07:12:19;;;;;;;1.58;0.40;;;6.80;99.90;;;;;;5034881;28;20040;-51
2022/04/08 07:14:44;;;;;;;5.45;0.45;;;6.70;99.90;;;;;;5051309;28;20476;-49
2022/04/08 07:17:10;;;;;;;2.47;0.50;;;6.70;99.90;;;;;;5033623;28;20037;-49
2022/04/08 07:19:35;;;;;;;1.50;0.60;;;6.50;99.90;;;;;;5051048;28;20017;-51
2022/04/08 07:22:00;;;;;;;1.27;0.68;;;6.60;99.90;;;;;;5028686;28;20037;-45
2022/04/08 07:24:26;;;;;;;2.90;0.85;;;6.80;99.90;;;;;;5051216;28;20072;-46
2022/04/08 07:26:52;;;;;;;2.55;0.60;;;7.40;97.30;;;;;;5030608;28;20136;-51
2022/04/08 07:29:17;;;;;;;2.83;0.77;;;7.10;96.10;;;;;;5050989;28;20025;-50
2022/04/08 07:31:43;;;;;;;2.90;0.55;;;6.80;94.90;;;;;;5031508;28;20489;-51
2022/04/08 07:34:08;;;;;;;2.47;0.50;;;6.60;99.50;;;;;;5050591;28;20031;-47
2022/04/08 07:36:34;;;;;;;1.83;0.50;;;6.60;99.90;;;;;;5031377;28;20120;-46
2022/04/08 07:38:59;;;;;;;3.50;0.60;;;6.40;99.90;;;;;;5029831;28;20025;-47
2022/04/08 07:41:25;;;;;;;0.98;0.50;;;6.40;99.90;;;;;;5032649;28;20091;-45
2022/04/08 07:43:50;;;;;;;1.48;0.57;;;6.40;99.90;;;;;;5028541;28;20018;-48
2022/04/08 07:46:16;;;;;;;1.15;0.60;;;6.40;99.90;;;;;;5049510;28;20036;-50
2022/04/08 07:48:41;;;;;;;2.83;0.85;;;6.40;99.90;;;;;;5029259;28;20501;-49
2022/04/08 07:51:07;;;;;;;4.93;0.70;;;6.60;99.90;;;;;;5049675;28;20504;-45
2022/04/08 07:53:32;;;;;;;2.40;0.57;;;6.90;98.60;;;;;;5029383;28;20025;-50
2022/04/08 07:55:58;;;;;;;2.58;0.85;;;7.10;98.20;;;;;;5049712;28;20045;-47
2022/04/08 07:58:23;;;;;;;5.50;1.05;;;7.80;96.50;;;;;;5029233;28;20037;-50
2022/04/08 08:00:53;;;;;;;3.97;0.75;;;9.00;90.30;;;;;;5049476;28;20031;-47
2022/04/08 08:03:19;;;;;;;2.97;0.95;;;9.50;83.90;;;;;;5028495;28;20037;-46
2022/04/08 08:05:45;;;;;;;8.90;1.50;;;9.70;78.40;;;;;;5049391;28;20032;-47
2022/04/08 08:08:10;;;;;;;2.38;0.80;;;9.90;75.30;;;;;;5029002;28;20033;-51
2022/04/08 08:10:36;;;;;;;5.13;1.13;;;10.50;64.10;;;;;;5049258;28;20067;-46
2022/04/08 08:13:03;;;;;;;4.38;1.30;;;13.70;50.50;;;;;;5039255;28;20484;-52
2022/04/08 08:15:30;;;;;;;2.42;0.95;;;16.50;41.60;;;;;;5030660;28;20057;-50
2022/04/08 08:17:57;;;;;;;4.95;1.38;;;18.60;34.30;;;;;;5047532;28;20859;-50
2022/04/08 08:20:23;;;;;;;5.18;1.25;;;20.10;29.70;;;;;;5049739;28;20029;-52
2022/04/08 08:22:49;;;;;;;3.63;1.38;;;20.30;27.80;;;;;;5028151;28;20037;-48
2022/04/08 08:25:16;;;;;;;5.72;1.23;;;21.50;22.60;;;;;;5029832;28;20021;-49
2022/04/08 08:27:45;;;;;;;6.05;2.13;;;22.40;23.70;;;;;;5028190;28;20405;-51
2022/04/08 08:30:13;;;;;;;4.30;1.63;;;23.10;21.00;;;;;;5029772;28;20108;-53
2022/04/08 08:32:40;;;;;;;6.53;2.20;;;23.50;20.00;;;;;;5028057;28;20493;-51
2022/04/08 08:35:08;;;;;;;7.90;2.28;;;23.80;15.80;;;;;;5029581;28;20155;-51
2022/04/08 08:37:34;;;;;;;6.20;2.05;;;23.80;15.10;;;;;;5028055;28;20026;-51
2022/04/08 08:40:00;;;;;;;4.00;1.50;;;24.30;13.80;;;;;;5029574;28;20048;-50
2022/04/08 08:42:28;;;;;;;5.13;1.92;;;24.80;14.70;;;;;;5027811;28;20037;-51
2022/04/08 08:44:53;;;;;;;7.22;1.65;;;23.70;14.40;;;;;;5029221;28;20120;-52
2022/04/08 08:47:19;;;;;;;6.65;2.03;;;23.40;15.00;;;;;;5027490;28;20361;-52
2022/04/08 08:49:50;;;;;;;5.28;2.28;;;22.90;14.10;;;;;;5029450;28;20477;-50
2022/04/08 08:52:19;;;;;;;3.55;1.42;;;22.00;12.70;;;;;;5027586;28;20029;-51
2022/04/08 08:54:45;;;;;;;4.65;1.58;;;21.10;13.50;;;;;;5029262;28;20033;-47
2022/04/08 08:57:18;;;;;;;5.20;1.70;;;19.80;14.40;;;;;;5027391;28;20025;-46
2022/04/08 08:59:45;;;;;;;6.72;1.40;;;20.80;14.20;;;;;;5029661;28;20029;-46
2022/04/08 09:02:14;;;;;;;3.63;1.55;;;19.60;14.80;;;;;;5027485;28;20267;-51
2022/04/08 09:04:43;;;;;;;7.25;1.63;;;18.20;16.80;;;;;;5029541;28;20026;-49
2022/04/08 09:07:29;;;;;;;5.10;1.38;;;17.30;16.50;;;;;;5027339;28;20107;-51
2022/04/08 09:09:58;;;;;;;6.07;1.63;;;16.50;17.50;;;;;;5029186;28;20392;-47
2022/04/08 09:12:26;;;;;;;7.57;1.65;;;15.20;17.00;;;;;;5027212;28;20041;-50
2022/04/08 09:14:53;;;;;;;4.43;1.52;;;14.40;21.10;;;;;;5029135;28;20021;-47
2022/04/08 09:17:21;;;;;;;6.88;1.33;;;13.80;21.50;;;;;;5035708;28;20125;-49
2022/04/08 09:19:51;;;;;;;7.32;1.75;;;13.20;22.00;;;;;;5029085;28;20500;-44
2022/04/08 09:22:17;;;;;;;5.25;1.70;;;12.60;23.00;;;;;;5042801;28;20036;-47
2022/04/08 09:24:43;;;;;;;3.85;1.10;;;12.50;22.90;;;;;;5046986;28;20021;-46
2022/04/08 09:27:10;;;;;;;8.70;2.35;;;14.30;21.50;;;;;;5048760;28;20025;-45
2022/04/08 09:29:35;;;;;;;6.55;1.73;;;15.50;19.00;;;;;;5021603;28;20361;-50
2022/04/08 09:32:08;;;;;;;3.70;1.27;;;15.10;15.80;;;;;;5028656;28;20041;-49
2022/04/08 09:34:33;;;;;;;5.82;0.93;;;16.60;15.10;;;;;;5027068;28;20245;-50
2022/04/08 09:37:06;;;;;;;8.60;1.60;;;17.10;15.40;;;;;;5028855;28;20452;-52
2022/04/08 09:39:31;;;;;;;3.10;1.15;;;17.90;13.80;;;;;;5027215;28;20377;-51
2022/04/08 09:41:57;;;;;;;6.03;1.35;;;19.90;11.80;;;;;;5028741;28;20036;-51
2022/04/08 09:44:27;;;;;;;4.72;1.40;;;21.70;10.70;;;;;;5026837;28;20029;-49
2022/04/08 09:46:52;;;;;;;5.53;1.30;;;22.30;9.20;;;;;;5028498;28;20397;-46
2022/04/08 09:49:18;;;;;;;3.70;1.15;;;20.20;9.90;;;;;;5026695;28;20345;-47
2022/04/08 09:51:49;;;;;;;4.55;1.40;;;19.30;11.50;;;;;;5028651;28;20529;-48
2022/04/08 09:54:20;;;;;;;5.80;1.60;;;18.80;11.80;;;;;;5026998;28;20036;-49
2022/04/08 09:56:45;;;;;;;3.85;1.45;;;17.70;12.10;;;;;;5028684;28;20477;-46
2022/04/08 09:59:12;;;;;;;3.40;1.42;;;16.40;14.30;;;;;;5026954;28;20047;-46
2022/04/08 10:01:39;;;;;;;2.50;1.20;;;15.10;16.70;;;;;;5028583;28;20485;-52
2022/04/08 10:04:06;;;;;;;4.05;1.30;;;14.00;19.20;;;;;;5026529;28;20025;-47
2022/04/08 10:06:32;;;;;;;7.30;1.35;;;14.60;20.50;;;;;;5028398;28;20087;-48
2022/04/08 10:08:59;;;;;;;5.75;1.00;;;16.40;16.80;;;;;;5029909;28;20061;-52
2022/04/08 10:11:34;;;;;;;4.00;1.25;;;16.00;15.40;;;;;;5032370;28;20041;-47
2022/04/08 10:14:10;;;;;;;3.20;1.05;;;14.90;15.90;;;;;;5030637;28;20030;-50
2022/04/08 10:16:39;;;;;;;3.22;0.80;;;14.10;17.80;;;;;;5032300;28;20029;-50
2022/04/08 10:19:07;;;;;;;3.92;0.98;;;13.40;19.50;;;;;;5030427;28;20302;-48
2022/04/08 10:21:38;;;;;;;1.88;0.80;;;13.10;20.40;;;;;;5032047;28;20036;-47
2022/04/08 10:24:10;;;;;;;20.27;3.13;;;12.90;20.80;;;;;;5030213;28;20278;-50
2022/04/08 10:27:08;;;;;;;3.30;1.27;;;12.90;20.70;;;;;;5012401;28;20034;-51
2022/04/08 10:29:34;;;;;;;4.80;0.98;;;13.00;20.60;;;;;;5021544;28;20337;-52
2022/04/08 10:32:13;;;;;;;4.97;1.35;;;13.00;20.00;;;;;;5050937;28;20033;-52
2022/04/08 10:34:39;;;;;;;6.40;1.17;;;12.90;18.90;;;;;;5030357;28;20026;-51
2022/04/08 10:37:21;;;;;;;6.18;1.38;;;12.70;19.40;;;;;;5051019;28;20032;-53
2022/04/08 10:39:57;;;;;;;2.65;0.77;;;12.30;19.60;;;;;;5012044;28;20132;-52
2022/04/08 10:42:23;;;;;;;;;;;11.90;20.70;;;;;;5049167;28;20512;-49
2022/04/08 10:44:49;;;;;;;9.35;1.48;;;11.80;19.40;;;;;;5051625;28;20016;-47
2022/04/08 10:47:16;;;;;;;1.98;0.70;;;11.80;20.30;;;;;;5032398;28;20124;-48
2022/04/08 10:49:50;;;;;;;3.50;1.02;;;11.80;20.90;;;;;;5030516;28;20155;-51
2022/04/08 10:52:23;;;;;;;2.03;0.90;;;11.80;21.00;;;;;;5011830;28;20037;-50
2022/04/08 10:54:49;;;;;;;3.60;0.80;;;11.70;21.20;;;;;;5011698;28;20029;-48
2022/04/08 10:57:26;;;;;;;3.45;0.73;;;11.50;21.60;;;;;;5050605;28;20110;-51
2022/04/08 10:59:55;;;;;;;5.03;0.90;;;11.30;21.80;;;;;;5011753;28;20037;-48
2022/04/08 11:02:21;;;;;;;3.38;1.08;;;11.20;22.50;;;;;;5050181;28;20499;-51
2022/04/08 11:04:47;;;;;;;2.58;0.98;;;10.90;23.00;;;;;;5011486;28;20489;-49
2022/04/08 11:07:13;;;;;;;2.42;0.75;;;10.80;23.90;;;;;;5049980;28;20044;-52
2022/04/08 11:09:41;;;;;;;2.08;0.80;;;11.10;24.00;;;;;;5029945;28;20026;-48
2022/04/08 11:12:07;;;;;;;6.28;0.80;;;11.40;23.90;;;;;;5050669;28;20119;-46
2022/04/08 11:14:33;;;;;;;5.65;0.88;;;11.60;22.70;;;;;;5030013;28;20434;-51
2022/04/08 11:16:58;;;;;;;3.05;0.60;;;11.70;20.40;;;;;;5033099;28;20147;-48
2022/04/08 11:19:24;;;;;;;1.45;0.68;;;11.80;20.10;;;;;;5029840;28;20400;-47
2022/04/08 11:21:51;;;;;;;4.43;0.80;;;11.70;19.50;;;;;;5050219;28;20388;-53
2022/04/08 11:24:17;;;;;;;1.58;0.70;;;11.60;19.90;;;;;;5029544;28;20526;-48
2022/04/08 11:26:51;;;;;;;7.10;0.85;;;11.40;19.70;;;;;;5050429;28;20466;-51
2022/04/08 11:29:27;;;;;;;1.60;0.60;;;11.40;20.10;;;;;;5022414;28;20113;-50
2022/04/08 11:32:09;;;;;;;5.18;0.77;;;11.40;20.20;;;;;;5010876;28;20116;-47
2022/04/08 11:34:34;;;;;;;2.45;1.00;;;11.20;20.10;;;;;;5027375;28;20045;-46
2022/04/08 11:37:00;;;;;;;2.72;0.60;;;10.90;20.90;;;;;;5049910;28;20036;-48
2022/04/08 11:39:30;;;;;;;5.50;1.40;;;10.60;22.00;;;;;;5029822;28;20021;-52
2022/04/08 11:41:57;;;;;;;2.42;0.73;;;10.40;23.40;;;;;;5011014;28;20559;-50
2022/04/08 11:44:24;;;;;;;4.88;1.00;;;10.40;25.30;;;;;;5031019;28;20053;-49
2022/04/08 11:46:50;;;;;;;3.60;0.95;;;10.60;25.90;;;;;;5049830;28;20035;-47
2022/04/08 11:49:16;;;;;;;4.38;0.80;;;10.90;26.10;;;;;;5029154;28;20114;-50
2022/04/08 11:51:42;;;;;;;2.83;1.00;;;11.10;24.80;;;;;;5049846;28;20045;-47
2022/04/08 11:54:08;;;;;;;6.65;1.48;;;11.30;24.60;;;;;;5029103;28;20041;-47
2022/04/08 11:56:34;;;;;;;2.03;0.77;;;11.40;24.10;;;;;;5049522;28;20032;-46
2022/04/08 11:59:04;;;;;;;3.10;0.90;;;11.50;24.20;;;;;;5029020;28;20531;-49
2022/04/08 12:01:31;;;;;;;3.97;0.88;;;11.60;24.30;;;;;;5010729;28;20428;-52
2022/04/08 12:04:00;;;;;;;3.40;0.93;;;11.70;23.40;;;;;;5034181;28;20087;-49
2022/04/08 12:07:12;;;;;;;3.33;0.80;;;11.80;23.60;;;;;;5029155;28;20036;-47
2022/04/08 12:10:37;;;;;;;2.78;0.80;;;11.70;23.60;;;;;;5044968;28;20065;-46
2022/04/08 12:14:03;;;;;;;2.25;0.75;;;11.60;23.30;;;;;;5010621;28;20046;-49
2022/04/08 12:17:28;;;;;;;3.55;1.00;;;11.70;22.50;;;;;;5038718;28;20041;-52
2022/04/08 12:20:53;;;;;;;3.20;0.70;;;11.80;21.80;;;;;;5017656;28;20389;-49
2022/04/08 12:23:40;;;;;;;3.70;0.70;;;12.00;22.20;;;;;;5010444;28;20046;-45
2022/04/08 12:26:07;;;;;;;2.03;0.82;;;12.10;22.20;;;;;;5030713;28;20100;-51
2022/04/08 12:29:11;;;;;;;5.72;1.20;;;12.00;21.50;;;;;;5037971;28;20396;-46
2022/04/08 12:32:37;;;;;;;2.70;1.60;;;11.70;20.50;;;;;;5043547;28;20053;-50
2022/04/08 12:36:02;;;;;;;4.30;2.22;;;11.30;24.00;;;;;;5031839;28;20037;-47
2022/04/08 12:39:27;;;;;;;4.82;1.63;;;11.00;29.20;;;;;;5038366;28;20058;-46
2022/04/08 12:42:53;;;;;;;4.50;1.08;;;10.90;31.40;;;;;;5030335;28;20037;-50
2022/04/08 12:46:18;;;;;;;2.22;0.82;;;10.90;30.00;;;;;;5026735;28;20041;-52
2022/04/08 12:49:44;;;;;;;2.95;1.05;;;11.10;29.60;;;;;;5042435;28;20048;-49
2022/04/08 12:53:09;;;;;;;3.88;1.00;;;11.50;29.50;;;;;;5027466;28;20503;-50
2022/04/08 12:56:34;;;;;;;4.85;1.00;;;11.70;27.20;;;;;;5028857;28;20067;-48
2022/04/08 13:00:00;;;;;;;1.70;0.82;;;11.80;26.90;;;;;;5024876;28;20497;-45
2022/04/08 13:03:25;;;;;;;3.90;1.30;;;12.00;25.80;;;;;;5007394;28;20045;-50
2022/04/08 13:06:56;;;;;;;5.07;1.33;;;12.20;26.20;;;;;;5039348;28;20110;-48
2022/04/08 13:10:16;;;;;;;7.60;1.50;;;12.10;26.00;;;;;;5031053;28;20044;-50
2022/04/08 13:13:41;;;;;;;1.95;0.90;;;12.20;25.20;;;;;;5007049;28;20449;-48
2022/04/08 13:17:07;;;;;;;2.92;0.60;;;12.20;25.00;;;;;;5041929;28;20072;-49
2022/04/08 13:20:32;;;;;;;7.95;1.42;;;12.20;23.50;;;;;;5038862;28;20511;-45
2022/04/08 13:23:57;;;;;;;6.95;1.08;;;12.10;21.70;;;;;;5007241;28;20036;-47
2022/04/08 13:27:23;;;;;;;1.83;0.82;;;11.80;21.80;;;;;;5035751;28;20045;-52
2022/04/08 13:30:48;;;;;;;6.68;1.60;;;11.40;22.80;;;;;;5022512;28;20033;-51
2022/04/08 13:34:13;;;;;;;6.55;1.38;;;11.50;23.70;;;;;;5006830;28;20089;-49
2022/04/08 13:37:39;;;;;;;3.17;1.20;;;11.60;23.20;;;;;;5035302;28;20488;-46
2022/04/08 13:41:04;;;;;;;2.65;0.70;;;11.80;22.50;;;;;;5020385;28;20046;-53
2022/04/08 13:44:30;;;;;;;6.28;1.42;;;11.90;22.50;;;;;;5045714;28;20492;-52
2022/04/08 13:47:55;;;;;;;2.00;0.63;;;12.00;23.10;;;;;;5037789;28;20041;-54
2022/04/08 13:51:20;;;;;;;4.50;0.98;;;11.90;22.10;;;;;;5030091;28;20061;-54
2022/04/08 13:54:46;;;;;;;2.72;1.13;;;11.70;22.00;;;;;;5039339;28;20086;-52
2022/04/08 13:58:11;;;;;;;2.65;1.08;;;11.40;23.10;;;;;;5032147;28;20041;-53
2022/04/08 14:01:36;;;;;;;3.75;1.30;;;11.00;25.50;;;;;;5027371;28;20038;-52
2022/04/08 14:04:22;;;;;;;2.92;1.25;;;10.80;29.20;;;;;;5044096;28;20033;-52
2022/04/08 14:07:27;;;;;;;2.75;1.27;;;10.70;30.40;;;;;;5050603;28;20036;-49
2022/04/08 14:10:52;;;;;;;1.38;0.85;;;10.80;31.30;;;;;;5031835;28;20088;-49
2022/04/08 14:14:18;;;;;;;2.15;0.95;;;10.90;32.30;;;;;;5046573;28;20076;-53